Time;durP1;ratioP1;P1;durP2;ratioP2;P2;SDS_P1;SDS_P2;PMS_P1;PMS_P2;Temp;Humidity;BMP_temperature;BMP_pressure;BME280_temperature;BME280_humidity;BME280_pressure;Samples;Min_cycle;Max_cycle;Signal;HPM_P1;HPM_P2
2021/10/31 00:00:48;;;;;;;16.98;2.95;;;11.80;99.90;;;;;;5042273;28;20037;-62
2021/10/31 00:03:16;;;;;;;18.77;4.78;;;11.80;99.90;;;;;;5041957;28;20029;-62
2021/10/31 00:05:42;;;;;;;25.20;3.88;;;11.80;99.90;;;;;;5041103;28;20104;-62
2021/10/31 00:08:08;;;;;;;23.38;3.85;;;11.80;99.90;;;;;;5041891;28;20129;-62
2021/10/31 00:10:35;;;;;;;25.95;3.45;;;11.80;99.90;;;;;;5036571;28;20033;-62
2021/10/31 00:13:01;;;;;;;14.98;3.67;;;11.80;99.90;;;;;;5040990;28;20029;-62
2021/10/31 00:15:26;;;;;;;19.48;3.65;;;11.80;99.90;;;;;;5039024;28;20350;-62
2021/10/31 00:17:53;;;;;;;24.35;4.25;;;11.70;99.90;;;;;;5042691;28;20039;-61
2021/10/31 00:20:19;;;;;;;16.75;3.58;;;11.80;99.90;;;;;;5038250;28;20438;-62
2021/10/31 00:22:47;;;;;;;21.70;4.35;;;11.70;99.90;;;;;;5040558;28;20115;-62
2021/10/31 00:25:14;;;;;;;20.95;4.53;;;11.70;99.90;;;;;;5040315;28;20030;-62
2021/10/31 00:27:41;;;;;;;24.33;3.95;;;11.70;99.90;;;;;;5039719;28;20029;-62
2021/10/31 00:30:08;;;;;;;15.43;3.63;;;11.70;99.90;;;;;;5040046;28;20052;-62
2021/10/31 00:32:34;;;;;;;22.13;4.25;;;11.70;99.90;;;;;;5039568;28;20122;-62
2021/10/31 00:35:00;;;;;;;25.73;3.78;;;11.60;99.90;;;;;;5022745;28;20436;-62
2021/10/31 00:37:26;;;;;;;18.00;3.28;;;11.60;99.90;;;;;;5040802;28;20378;-62
2021/10/31 00:39:52;;;;;;;18.83;3.70;;;11.50;99.90;;;;;;5040451;28;20117;-62
2021/10/31 00:42:18;;;;;;;26.10;4.03;;;11.40;99.90;;;;;;5038908;28;20120;-62
2021/10/31 00:44:43;;;;;;;22.17;4.30;;;11.40;99.90;;;;;;5038486;28;20021;-62
2021/10/31 00:47:09;;;;;;;21.60;4.53;;;11.30;99.90;;;;;;5035938;28;20037;-62
2021/10/31 00:49:35;;;;;;;24.90;3.78;;;11.30;99.90;;;;;;5038890;28;20096;-62
2021/10/31 00:52:02;;;;;;;17.73;3.60;;;11.20;99.90;;;;;;5039473;28;20025;-62
2021/10/31 00:54:28;;;;;;;22.52;4.25;;;11.20;99.90;;;;;;5039281;28;20354;-62
2021/10/31 00:56:54;;;;;;;19.38;3.80;;;11.20;99.90;;;;;;5039147;28;20318;-63
2021/10/31 00:59:20;;;;;;;22.23;4.55;;;11.20;99.90;;;;;;5038398;28;20033;-62
2021/10/31 01:01:49;;;;;;;19.65;3.70;;;11.10;99.90;;;;;;5034486;28;20331;-62
2021/10/31 01:04:20;;;;;;;15.13;3.15;;;11.10;99.90;;;;;;5039980;28;20032;-62
2021/10/31 01:06:58;;;;;;;16.48;3.70;;;11.00;99.90;;;;;;5040206;28;20027;-62
2021/10/31 01:10:02;;;;;;;19.52;4.00;;;11.00;99.90;;;;;;5037627;28;20029;-62
2021/10/31 01:13:12;;;;;;;19.98;4.55;;;10.90;99.90;;;;;;4975434;28;20316;-62
2021/10/31 01:15:55;;;;;;;15.68;3.03;;;10.80;99.90;;;;;;5022347;28;20073;-62
2021/10/31 01:18:44;;;;;;;22.48;3.85;;;10.70;99.90;;;;;;5041371;28;20031;-62
2021/10/31 01:21:35;;;;;;;17.45;3.58;;;10.60;99.90;;;;;;5042041;28;20433;-62
2021/10/31 01:24:01;;;;;;;20.85;4.35;;;10.60;99.90;;;;;;5022015;28;20017;-62
2021/10/31 01:26:54;;;;;;;18.63;5.10;;;10.50;99.90;;;;;;5039303;28;20060;-62
2021/10/31 01:29:53;;;;;;;11.18;2.65;;;10.50;99.90;;;;;;5041819;28;20040;-62
2021/10/31 01:32:31;;;;;;;23.88;3.33;;;10.50;99.90;;;;;;5010421;28;20032;-62
2021/10/31 01:35:18;;;;;;;25.50;4.97;;;10.50;99.90;;;;;;5039655;28;20413;-62
2021/10/31 01:37:52;;;;;;;18.52;3.50;;;10.50;99.90;;;;;;5041775;28;20037;-62
2021/10/31 01:40:34;;;;;;;17.92;3.30;;;10.40;99.90;;;;;;5038586;28;20538;-62
2021/10/31 01:43:19;;;;;;;15.43;3.70;;;10.40;99.90;;;;;;5037048;28;20069;-62
2021/10/31 01:46:24;;;;;;;18.95;3.90;;;10.30;99.90;;;;;;5041270;28;20064;-62
2021/10/31 01:49:02;;;;;;;18.50;3.95;;;10.30;99.90;;;;;;5041020;28;20110;-62
2021/10/31 01:51:53;;;;;;;20.10;3.92;;;10.20;99.90;;;;;;5041991;28;20041;-62
2021/10/31 01:54:43;;;;;;;20.88;3.05;;;10.10;99.90;;;;;;5038169;28;20107;-62
2021/10/31 01:57:11;;;;;;;;;;;9.90;99.90;;;;;;5039975;28;20397;-62
2021/10/31 01:59:42;;;;;;;22.85;4.22;;;9.90;99.90;;;;;;5043030;28;19912;-62
2021/10/31 02:02:10;;;;;;;16.05;3.47;;;9.90;99.90;;;;;;5042235;28;20029;-62
2021/10/31 02:04:38;;;;;;;16.48;3.35;;;9.90;99.90;;;;;;5044046;28;20032;-62
2021/10/31 02:07:05;;;;;;;24.30;4.82;;;9.90;99.90;;;;;;5025522;28;20021;-62
2021/10/31 02:09:32;;;;;;;21.10;3.80;;;10.00;99.90;;;;;;5042454;28;20035;-62
2021/10/31 02:12:01;;;;;;;20.98;3.45;;;10.10;99.90;;;;;;5039754;28;20033;-62
2021/10/31 02:14:29;;;;;;;24.10;3.47;;;10.00;99.90;;;;;;5024722;28;20028;-62
2021/10/31 02:16:57;;;;;;;17.55;3.65;;;10.00;99.90;;;;;;5044288;28;20100;-62
2021/10/31 02:19:39;;;;;;;21.58;4.05;;;10.10;99.90;;;;;;5043682;28;20032;-62
2021/10/31 02:22:09;;;;;;;25.13;5.07;;;10.00;99.90;;;;;;5042604;28;20029;-62
2021/10/31 02:24:36;;;;;;;27.35;5.38;;;10.20;99.90;;;;;;5043954;28;20211;-62
2021/10/31 02:27:19;;;;;;;14.98;3.95;;;10.10;99.90;;;;;;5042919;28;20029;-62
2021/10/31 02:29:48;;;;;;;21.85;4.40;;;10.10;99.90;;;;;;5043166;28;20041;-62
2021/10/31 02:32:15;;;;;;;26.48;4.93;;;10.10;99.90;;;;;;5042726;28;20059;-62
2021/10/31 02:34:41;;;;;;;22.98;4.93;;;10.20;99.90;;;;;;5044543;28;20036;-62
2021/10/31 02:37:07;;;;;;;20.83;5.10;;;10.20;99.90;;;;;;5041640;28;20053;-62
2021/10/31 02:39:32;;;;;;;15.35;3.20;;;10.30;99.90;;;;;;5043483;28;20025;-62
2021/10/31 02:41:59;;;;;;;19.77;3.78;;;10.40;99.90;;;;;;5044832;28;20068;-62
2021/10/31 02:44:25;;;;;;;29.52;4.90;;;10.40;99.90;;;;;;5042426;28;20319;-62
2021/10/31 02:46:51;;;;;;;16.50;4.22;;;10.40;99.90;;;;;;5044074;28;20048;-62
2021/10/31 02:49:18;;;;;;;15.18;3.83;;;10.40;99.90;;;;;;5042166;28;20078;-62
2021/10/31 02:51:57;;;;;;;17.48;3.20;;;10.50;99.90;;;;;;5044231;28;20253;-62
2021/10/31 02:54:51;;;;;;;18.00;4.20;;;10.40;99.90;;;;;;5042369;28;20018;-62
2021/10/31 02:57:37;;;;;;;24.50;4.10;;;10.40;99.90;;;;;;5042496;28;20042;-62
2021/10/31 03:00:07;;;;;;;14.57;3.78;;;10.40;99.90;;;;;;5009199;28;20020;-62
2021/10/31 03:02:33;;;;;;;;;;;10.30;99.90;;;;;;5042406;28;20017;-62
2021/10/31 03:05:00;;;;;;;19.48;3.53;;;10.30;99.90;;;;;;5043393;28;19917;-62
2021/10/31 03:07:27;;;;;;;15.93;4.00;;;10.10;99.90;;;;;;5041192;28;20274;-62
2021/10/31 03:09:53;;;;;;;15.65;3.65;;;10.00;99.90;;;;;;5042387;28;20048;-62
2021/10/31 03:12:19;;;;;;;17.48;3.60;;;10.00;99.90;;;;;;5041420;28;20074;-62
2021/10/31 03:14:45;;;;;;;20.25;3.63;;;9.90;99.90;;;;;;5044362;28;20017;-62
2021/10/31 03:17:12;;;;;;;15.90;3.40;;;9.80;99.90;;;;;;5042328;28;20053;-62
2021/10/31 03:19:38;;;;;;;23.70;3.67;;;9.70;99.90;;;;;;5042136;28;20129;-62
2021/10/31 03:22:05;;;;;;;24.33;4.78;;;9.60;99.90;;;;;;5041712;28;20362;-62
2021/10/31 03:24:31;;;;;;;19.20;3.92;;;9.60;99.90;;;;;;5042292;28;20033;-62
2021/10/31 03:26:57;;;;;;;20.67;4.70;;;9.60;99.90;;;;;;5041572;28;20039;-62
2021/10/31 03:29:24;;;;;;;18.67;4.85;;;9.60;99.90;;;;;;5042274;28;20342;-62
2021/10/31 03:31:53;;;;;;;18.85;3.72;;;9.70;99.90;;;;;;5039790;28;20167;-62
2021/10/31 03:34:20;;;;;;;20.80;3.83;;;9.70;99.90;;;;;;5025859;28;20339;-62
2021/10/31 03:36:47;;;;;;;22.15;4.40;;;9.60;99.90;;;;;;5041902;28;20075;-62
2021/10/31 03:39:14;;;;;;;19.15;3.78;;;9.60;99.90;;;;;;5041944;28;20025;-62
2021/10/31 03:41:40;;;;;;;20.73;4.43;;;9.60;99.90;;;;;;5042025;28;20037;-62
2021/10/31 03:44:07;;;;;;;24.58;4.93;;;9.60;99.90;;;;;;5041948;28;20064;-62
2021/10/31 03:46:33;;;;;;;18.55;4.15;;;9.50;99.90;;;;;;5040445;28;20022;-62
2021/10/31 03:48:59;;;;;;;17.05;3.47;;;9.40;99.90;;;;;;5042697;28;20052;-62
2021/10/31 03:51:25;;;;;;;19.17;4.50;;;9.40;99.90;;;;;;5040713;28;20373;-62
2021/10/31 03:53:51;;;;;;;19.45;3.80;;;9.30;99.90;;;;;;5042966;28;20029;-62
2021/10/31 03:56:17;;;;;;;19.52;4.55;;;9.20;99.90;;;;;;5042032;28;20213;-62
2021/10/31 03:58:43;;;;;;;23.58;4.55;;;9.10;99.90;;;;;;5042046;28;20315;-62
2021/10/31 04:01:08;;;;;;;14.70;3.92;;;9.10;99.90;;;;;;5041811;28;20063;-62
2021/10/31 04:03:34;;;;;;;23.23;4.55;;;9.10;99.90;;;;;;5039917;28;20092;-62
2021/10/31 04:06:00;;;;;;;28.85;4.75;;;9.20;99.90;;;;;;5037935;28;20736;-62
2021/10/31 04:08:26;;;;;;;18.50;4.22;;;9.10;99.90;;;;;;5041428;28;20025;-62
2021/10/31 04:10:52;;;;;;;21.70;3.67;;;9.10;99.90;;;;;;5022752;28;20056;-62
2021/10/31 04:13:18;;;;;;;16.23;4.13;;;9.00;99.90;;;;;;5036738;28;20035;-62
2021/10/31 04:15:44;;;;;;;18.55;4.28;;;9.10;99.90;;;;;;5041697;28;20060;-62
2021/10/31 04:18:10;;;;;;;20.38;4.07;;;9.10;99.90;;;;;;5039966;28;20396;-62
2021/10/31 04:20:36;;;;;;;12.95;3.72;;;9.10;99.90;;;;;;5039764;28;20031;-62
2021/10/31 04:23:02;;;;;;;15.60;3.83;;;9.10;99.90;;;;;;5023376;28;20092;-62
2021/10/31 04:25:28;;;;;;;24.70;4.93;;;9.10;99.90;;;;;;5040908;28;20037;-62
2021/10/31 04:27:54;;;;;;;11.20;3.60;;;9.20;99.90;;;;;;5039797;28;20515;-62
2021/10/31 04:30:19;;;;;;;24.88;5.03;;;9.20;99.90;;;;;;5042310;28;20029;-62
2021/10/31 04:32:46;;;;;;;19.10;4.47;;;9.20;99.90;;;;;;5040263;28;20369;-62
2021/10/31 04:35:11;;;;;;;17.88;4.28;;;9.30;99.90;;;;;;5019976;28;20037;-62
2021/10/31 04:37:41;;;;;;;19.08;4.28;;;9.30;99.90;;;;;;5042451;28;20331;-62
2021/10/31 04:40:10;;;;;;;16.80;3.75;;;9.30;99.90;;;;;;5038078;28;20501;-62
2021/10/31 04:42:38;;;;;;;10.32;3.22;;;9.30;99.90;;;;;;5039423;28;20117;-62
2021/10/31 04:45:05;;;;;;;13.85;3.33;;;9.30;99.90;;;;;;5039170;28;20066;-62
2021/10/31 04:47:31;;;;;;;14.10;4.35;;;9.30;99.90;;;;;;5041468;28;20029;-62
2021/10/31 04:49:58;;;;;;;19.83;4.10;;;9.40;99.90;;;;;;5037544;28;20320;-62
2021/10/31 04:52:24;;;;;;;11.45;3.38;;;9.40;99.90;;;;;;5037899;28;20354;-62
2021/10/31 04:54:50;;;;;;;19.95;3.28;;;9.40;99.90;;;;;;5039918;28;20025;-62
2021/10/31 04:57:17;;;;;;;9.88;3.25;;;9.30;99.90;;;;;;5040096;28;20037;-62
2021/10/31 04:59:43;;;;;;;10.80;2.83;;;9.30;99.90;;;;;;5039257;28;20025;-62
2021/10/31 05:02:09;;;;;;;17.98;3.70;;;9.20;99.90;;;;;;5040742;28;20410;-62
2021/10/31 05:04:34;;;;;;;13.75;2.95;;;9.30;99.90;;;;;;5037113;28;20059;-62
2021/10/31 05:07:00;;;;;;;17.55;3.45;;;9.20;99.90;;;;;;5040728;28;20188;-62
2021/10/31 05:09:26;;;;;;;17.33;4.00;;;9.20;99.90;;;;;;5039756;28;20024;-62
2021/10/31 05:11:52;;;;;;;16.08;4.30;;;9.20;99.90;;;;;;5037149;28;20022;-62
2021/10/31 05:14:18;;;;;;;21.27;4.75;;;9.10;99.90;;;;;;5038719;28;20312;-62
2021/10/31 05:16:45;;;;;;;20.35;6.28;;;9.10;99.90;;;;;;5035052;28;20409;-62
2021/10/31 05:19:12;;;;;;;24.20;6.68;;;9.10;99.90;;;;;;5020456;28;20251;-62
2021/10/31 05:21:38;;;;;;;21.60;3.55;;;9.10;99.90;;;;;;5036779;28;20391;-62
2021/10/31 05:24:04;;;;;;;13.95;3.38;;;9.10;99.90;;;;;;5039982;28;20230;-62
2021/10/31 05:26:30;;;;;;;18.40;3.85;;;9.20;99.90;;;;;;5019536;28;20037;-62
2021/10/31 05:28:56;;;;;;;15.90;4.65;;;9.30;99.90;;;;;;5036673;28;20020;-62
2021/10/31 05:31:23;;;;;;;15.68;3.83;;;9.40;99.90;;;;;;5039804;28;20052;-62
2021/10/31 05:33:50;;;;;;;16.83;3.75;;;9.40;99.90;;;;;;5036379;28;20123;-62
2021/10/31 05:36:16;;;;;;;16.13;4.07;;;9.50;99.90;;;;;;5016583;28;20144;-63
2021/10/31 05:38:42;;;;;;;15.82;4.25;;;9.60;99.90;;;;;;5015419;28;20545;-62
2021/10/31 05:41:08;;;;;;;25.88;5.03;;;9.80;99.90;;;;;;5018604;28;20037;-63
2021/10/31 05:43:34;;;;;;;18.02;5.10;;;9.80;99.90;;;;;;5018558;28;20037;-62
2021/10/31 05:46:01;;;;;;;36.85;32.90;;;9.80;99.90;;;;;;5018681;28;20025;-63
2021/10/31 05:48:27;;;;;;;19.95;5.57;;;9.70;99.90;;;;;;5019203;28;20022;-62
2021/10/31 05:50:54;;;;;;;13.85;3.83;;;9.70;99.90;;;;;;5019229;28;20091;-62
2021/10/31 05:53:21;;;;;;;25.05;18.15;;;9.70;99.90;;;;;;5019345;28;20060;-62
2021/10/31 05:55:47;;;;;;;36.20;22.85;;;9.60;99.90;;;;;;5011416;28;20382;-62
2021/10/31 05:58:13;;;;;;;19.00;9.20;;;9.60;99.90;;;;;;5016781;28;20056;-62
2021/10/31 06:00:39;;;;;;;14.75;4.20;;;9.60;99.90;;;;;;5016808;28;20487;-63
2021/10/31 06:03:05;;;;;;;17.15;4.22;;;9.60;99.90;;;;;;5013290;28;20101;-62
2021/10/31 06:05:31;;;;;;;16.73;4.28;;;9.60;99.90;;;;;;5018832;28;20144;-62
2021/10/31 06:07:57;;;;;;;15.52;3.60;;;9.60;99.90;;;;;;5014613;28;20037;-62
2021/10/31 06:10:23;;;;;;;16.48;5.35;;;9.60;99.90;;;;;;5017631;28;20037;-62
2021/10/31 06:12:49;;;;;;;14.27;4.95;;;9.50;99.90;;;;;;5016929;28;20021;-62
2021/10/31 06:15:18;;;;;;;12.88;4.07;;;9.40;99.90;;;;;;5016319;28;20333;-63
2021/10/31 06:17:44;;;;;;;13.20;3.90;;;9.30;99.90;;;;;;5018023;28;20038;-63
2021/10/31 06:20:12;;;;;;;12.88;3.67;;;9.30;99.90;;;;;;5018322;28;20345;-62
2021/10/31 06:22:39;;;;;;;14.98;3.63;;;9.30;99.90;;;;;;5015283;28;20041;-62
2021/10/31 06:25:07;;;;;;;10.07;3.30;;;9.30;99.90;;;;;;5016744;28;20021;-62
2021/10/31 06:27:33;;;;;;;11.95;3.78;;;9.20;99.90;;;;;;5019084;28;20034;-62
2021/10/31 06:29:59;;;;;;;12.05;3.20;;;9.20;99.90;;;;;;5016372;28;21973;-62
2021/10/31 06:32:25;;;;;;;11.68;3.45;;;9.20;99.90;;;;;;5010486;28;20097;-62
2021/10/31 06:34:51;;;;;;;10.85;3.10;;;9.20;99.90;;;;;;5014846;28;20029;-62
2021/10/31 06:37:17;;;;;;;9.02;2.97;;;9.10;99.90;;;;;;5035068;28;20275;-63
2021/10/31 06:39:43;;;;;;;147.32;11.85;;;9.10;99.90;;;;;;5036644;28;20064;-62
2021/10/31 06:42:09;;;;;;;13.88;3.63;;;9.00;99.90;;;;;;5034159;28;20064;-62
2021/10/31 06:44:35;;;;;;;16.17;4.53;;;9.00;99.90;;;;;;5037761;28;20086;-63
2021/10/31 06:47:01;;;;;;;15.82;3.78;;;9.00;99.90;;;;;;5039442;28;20123;-62
2021/10/31 06:49:28;;;;;;;15.07;4.65;;;8.90;99.90;;;;;;5039005;28;20029;-63
2021/10/31 06:51:54;;;;;;;15.90;4.07;;;9.00;99.90;;;;;;5039563;28;20029;-63
2021/10/31 06:54:20;;;;;;;17.23;4.50;;;9.00;99.90;;;;;;5040309;28;20409;-62
2021/10/31 06:56:46;;;;;;;12.45;3.72;;;9.00;99.90;;;;;;5038696;28;20064;-62
2021/10/31 06:59:12;;;;;;;10.10;4.22;;;9.00;99.90;;;;;;5041111;28;20044;-63
2021/10/31 07:01:38;;;;;;;11.85;3.78;;;8.90;99.90;;;;;;5039723;28;20025;-63
2021/10/31 07:04:07;;;;;;;16.35;3.70;;;8.90;99.90;;;;;;5034500;28;20032;-63
2021/10/31 07:06:34;;;;;;;18.00;5.32;;;8.80;99.90;;;;;;5011204;28;20033;-63
2021/10/31 07:08:59;;;;;;;20.52;5.28;;;8.80;99.90;;;;;;5035091;28;20032;-62
2021/10/31 07:11:25;;;;;;;14.00;5.18;;;8.80;99.90;;;;;;5037852;28;20541;-63
2021/10/31 07:13:51;;;;;;;14.93;4.90;;;8.90;99.90;;;;;;5037235;28;20441;-62
2021/10/31 07:16:17;;;;;;;18.60;4.80;;;9.00;99.90;;;;;;5040023;28;20033;-62
2021/10/31 07:18:43;;;;;;;18.75;4.00;;;9.00;99.90;;;;;;5042966;28;20100;-62
2021/10/31 07:21:09;;;;;;;8.57;3.65;;;9.10;99.90;;;;;;5041963;28;20078;-62
2021/10/31 07:23:34;;;;;;;10.00;3.60;;;9.20;99.90;;;;;;5041484;28;20072;-62
2021/10/31 07:26:00;;;;;;;13.90;3.67;;;9.30;99.90;;;;;;5041298;28;20024;-62
2021/10/31 07:28:27;;;;;;;10.15;4.70;;;9.40;99.90;;;;;;5039719;28;20032;-63
2021/10/31 07:30:53;;;;;;;18.23;9.20;;;9.80;99.90;;;;;;5040180;28;20025;-62
2021/10/31 07:33:19;;;;;;;23.13;8.20;;;10.40;99.90;;;;;;5039619;28;20033;-63
2021/10/31 07:35:46;;;;;;;16.02;5.90;;;11.10;99.90;;;;;;5039086;28;20053;-63
2021/10/31 07:38:12;;;;;;;13.82;5.80;;;12.00;99.90;;;;;;5041401;28;20055;-63
2021/10/31 07:40:39;;;;;;;13.23;6.85;;;12.80;99.90;;;;;;5023182;28;20364;-61
2021/10/31 07:43:05;;;;;;;15.60;8.48;;;13.60;99.90;;;;;;5037400;28;20029;-61
2021/10/31 07:45:32;;;;;;;14.98;8.65;;;14.30;99.90;;;;;;5039712;28;21025;-61
2021/10/31 07:48:00;;;;;;;14.35;6.97;;;14.70;99.90;;;;;;5037674;28;20025;-62
2021/10/31 07:50:33;;;;;;;16.08;4.40;;;15.10;99.90;;;;;;5040966;28;20315;-62
2021/10/31 07:53:00;;;;;;;12.50;3.05;;;15.30;99.90;;;;;;5035423;28;20377;-64
2021/10/31 07:55:30;;;;;;;8.68;2.33;;;15.20;99.90;;;;;;5038081;28;20060;-63
2021/10/31 07:57:58;;;;;;;12.95;3.53;;;14.80;99.90;;;;;;5016853;28;20124;-63
2021/10/31 08:00:24;;;;;;;12.02;3.63;;;14.70;99.90;;;;;;5033942;28;20021;-75
2021/10/31 08:02:50;;;;;;;12.43;3.40;;;14.30;99.90;;;;;;5039534;28;20037;-82
2021/10/31 08:05:16;;;;;;;12.82;4.00;;;13.50;99.90;;;;;;5037085;28;20159;-83
2021/10/31 08:07:42;;;;;;;8.85;2.88;;;12.90;99.90;;;;;;5036288;28;20043;-72
2021/10/31 08:10:08;;;;;;;11.27;3.00;;;13.50;99.90;;;;;;5039337;28;20035;-74
2021/10/31 08:12:35;;;;;;;13.40;2.95;;;14.20;99.90;;;;;;5038843;28;20397;-76
2021/10/31 08:15:01;;;;;;;10.10;3.10;;;15.00;99.90;;;;;;5033705;28;20048;-78
2021/10/31 08:17:27;;;;;;;16.67;3.55;;;15.60;99.90;;;;;;5035992;28;20033;-78
2021/10/31 08:19:53;;;;;;;11.65;2.97;;;16.00;99.90;;;;;;5040120;28;20379;-76
2021/10/31 08:22:19;;;;;;;12.60;3.05;;;15.80;99.90;;;;;;5039779;28;20353;-77
2021/10/31 08:24:45;;;;;;;9.30;2.90;;;15.50;99.90;;;;;;5039292;28;20021;-78
2021/10/31 08:27:12;;;;;;;8.95;2.42;;;15.50;99.90;;;;;;5040320;28;20052;-79
2021/10/31 08:29:38;;;;;;;8.80;2.42;;;15.50;99.90;;;;;;5040638;28;20060;-76
2021/10/31 08:32:04;;;;;;;14.63;3.03;;;15.30;99.90;;;;;;5040503;28;20032;-76
2021/10/31 08:34:31;;;;;;;15.68;2.97;;;15.20;99.90;;;;;;5039735;28;20029;-76
2021/10/31 08:36:56;;;;;;;12.63;2.47;;;15.20;99.90;;;;;;5037130;28;20150;-77
2021/10/31 08:39:22;;;;;;;14.32;2.78;;;15.20;99.90;;;;;;5037748;28;20025;-77
2021/10/31 08:41:48;;;;;;;11.05;2.38;;;15.50;99.90;;;;;;5040228;28;20029;-77
2021/10/31 08:44:15;;;;;;;11.40;2.95;;;15.50;99.90;;;;;;5040413;28;20032;-78
2021/10/31 08:46:41;;;;;;;13.23;2.38;;;15.40;99.90;;;;;;5043728;28;20232;-78
2021/10/31 08:49:08;;;;;;;10.65;2.17;;;15.30;99.90;;;;;;5042194;28;20036;-78
2021/10/31 08:51:33;;;;;;;11.20;2.35;;;15.30;99.90;;;;;;5041699;28;20021;-77
2021/10/31 08:54:00;;;;;;;8.52;2.42;;;15.10;99.90;;;;;;5007835;28;20025;-76
2021/10/31 08:56:27;;;;;;;8.82;2.22;;;14.30;99.90;;;;;;5035189;28;20041;-65
2021/10/31 08:58:53;;;;;;;13.25;2.83;;;14.10;99.90;;;;;;5034673;28;20025;-66
2021/10/31 09:01:19;;;;;;;13.18;2.58;;;14.30;99.90;;;;;;5034789;28;20025;-66
2021/10/31 09:03:47;;;;;;;12.20;2.40;;;14.60;99.90;;;;;;5021671;28;20458;-66
2021/10/31 09:06:13;;;;;;;8.48;2.47;;;15.00;99.90;;;;;;5036752;28;20029;-66
2021/10/31 09:08:42;;;;;;;14.93;3.38;;;15.20;99.90;;;;;;5037187;28;20381;-65
2021/10/31 09:11:10;;;;;;;14.30;3.17;;;15.40;99.90;;;;;;5036976;28;20387;-66
2021/10/31 09:13:36;;;;;;;11.77;2.58;;;15.80;99.90;;;;;;5038338;28;20034;-66
2021/10/31 09:16:02;;;;;;;11.48;2.65;;;16.10;99.90;;;;;;5036665;28;20041;-66
2021/10/31 09:18:28;;;;;;;11.48;2.67;;;16.00;99.90;;;;;;5033378;28;20029;-65
2021/10/31 09:20:54;;;;;;;10.63;2.92;;;15.20;99.90;;;;;;5034575;28;20029;-65
2021/10/31 09:23:21;;;;;;;11.02;2.67;;;14.80;99.90;;;;;;5040172;28;20266;-65
2021/10/31 09:25:46;;;;;;;13.40;2.92;;;15.00;99.90;;;;;;5038566;28;20284;-65
2021/10/31 09:28:12;;;;;;;17.90;3.17;;;15.10;99.90;;;;;;5036371;28;20033;-65
2021/10/31 09:30:41;;;;;;;16.25;3.90;;;15.00;99.90;;;;;;5035132;28;20112;-65
2021/10/31 09:33:12;;;;;;;13.73;3.58;;;14.80;99.90;;;;;;5030372;28;20092;-65
2021/10/31 09:35:55;;;;;;;15.35;3.95;;;14.30;99.90;;;;;;5034285;28;20040;-64
2021/10/31 09:38:24;;;;;;;16.05;4.28;;;14.10;99.90;;;;;;5035986;28;20037;-64
2021/10/31 09:40:50;;;;;;;13.37;4.10;;;14.00;99.90;;;;;;5026957;28;20026;-64
2021/10/31 09:43:16;;;;;;;17.63;4.30;;;14.10;99.90;;;;;;5039492;28;20044;-64
2021/10/31 09:45:42;;;;;;;13.88;3.30;;;14.40;99.90;;;;;;5036433;28;20025;-64
2021/10/31 09:48:10;;;;;;;17.05;4.60;;;14.10;99.90;;;;;;5016240;28;20367;-64
2021/10/31 09:50:42;;;;;;;13.52;4.07;;;13.70;99.90;;;;;;5035474;28;20035;-64
2021/10/31 09:53:10;;;;;;;14.82;5.15;;;13.90;99.90;;;;;;5013700;28;20029;-64
2021/10/31 09:55:38;;;;;;;11.38;3.95;;;14.40;99.90;;;;;;5038877;28;20384;-64
2021/10/31 09:58:07;;;;;;;12.93;4.30;;;14.40;99.90;;;;;;5036901;28;20033;-64
2021/10/31 10:00:40;;;;;;;17.02;5.00;;;14.30;99.90;;;;;;5037425;28;20299;-64
2021/10/31 10:06:06;;;;;;;16.58;6.68;;;13.50;99.90;;;;;;5036322;28;20306;-63
2021/10/31 10:08:32;;;;;;;15.23;7.07;;;13.30;99.90;;;;;;5040157;28;20029;-63
2021/10/31 10:10:57;;;;;;;20.23;7.80;;;13.10;99.90;;;;;;5040407;28;20033;-64
2021/10/31 10:13:30;;;;;;;16.67;7.93;;;13.00;99.90;;;;;;5040549;28;20051;-64
2021/10/31 10:16:12;;;;;;;20.13;8.32;;;13.00;99.90;;;;;;5039522;28;20302;-64
2021/10/31 10:18:38;;;;;;;22.88;8.50;;;13.10;99.90;;;;;;5040537;28;20339;-64
2021/10/31 10:21:27;;;;;;;18.38;7.90;;;13.00;99.90;;;;;;5041365;28;20052;-64
2021/10/31 10:24:09;;;;;;;21.73;7.63;;;13.00;99.90;;;;;;5042917;28;20033;-64
2021/10/31 10:26:42;;;;;;;18.08;6.28;;;13.10;99.90;;;;;;5044340;28;20079;-64
2021/10/31 10:29:15;;;;;;;17.90;5.78;;;13.70;99.90;;;;;;5044926;28;20180;-65
2021/10/31 10:31:47;;;;;;;14.70;4.80;;;14.50;99.90;;;;;;5041542;28;20025;-64
2021/10/31 10:34:13;;;;;;;19.77;5.40;;;14.80;99.90;;;;;;5023504;28;20322;-64
2021/10/31 10:36:45;;;;;;;19.48;4.38;;;15.20;99.90;;;;;;5041966;28;20140;-65
2021/10/31 10:39:19;;;;;;;16.40;4.72;;;15.40;99.90;;;;;;5042040;28;20101;-65
2021/10/31 10:41:53;;;;;;;14.93;3.90;;;14.80;99.90;;;;;;5041396;28;20056;-64
2021/10/31 10:44:49;;;;;;;14.05;5.03;;;14.80;99.90;;;;;;5009618;28;20025;-64
2021/10/31 10:47:19;;;;;;;13.65;4.30;;;14.20;99.90;;;;;;5029157;28;20041;-64
2021/10/31 10:49:46;;;;;;;13.95;4.32;;;14.00;99.90;;;;;;5037223;28;20398;-64
2021/10/31 10:52:21;;;;;;;15.40;6.25;;;13.70;99.90;;;;;;5037060;28;20035;-64
2021/10/31 10:55:04;;;;;;;19.20;5.90;;;13.50;99.90;;;;;;5039462;28;20025;-64
2021/10/31 10:57:36;;;;;;;13.25;5.72;;;13.20;99.90;;;;;;5033943;28;20118;-64
2021/10/31 11:00:07;;;;;;;23.80;6.53;;;13.20;99.90;;;;;;5039409;28;20393;-64
2021/10/31 11:02:33;;;;;;;12.60;5.57;;;13.70;99.90;;;;;;5039893;28;20033;-64
2021/10/31 11:05:09;;;;;;;12.90;5.15;;;14.50;99.90;;;;;;5040347;28;20130;-64
2021/10/31 11:07:48;;;;;;;13.55;5.35;;;14.70;99.90;;;;;;5039896;28;20037;-64
2021/10/31 11:10:21;;;;;;;22.77;7.00;;;15.20;99.90;;;;;;5022914;28;20261;-64
2021/10/31 11:12:50;;;;;;;16.33;6.15;;;14.60;99.90;;;;;;5035486;28;20406;-64
2021/10/31 11:15:19;;;;;;;13.00;5.93;;;14.00;99.90;;;;;;5034504;28;20047;-64
2021/10/31 11:17:47;;;;;;;14.15;6.72;;;13.50;99.90;;;;;;5016957;28;20083;-64
2021/10/31 11:20:19;;;;;;;19.40;8.40;;;13.30;99.90;;;;;;5031011;28;20025;-64
2021/10/31 11:22:48;;;;;;;20.58;9.77;;;13.20;99.90;;;;;;5023884;28;20056;-64
2021/10/31 11:25:18;;;;;;;21.00;10.25;;;13.30;99.90;;;;;;5026067;28;20368;-65
2021/10/31 11:27:46;;;;;;;20.17;10.77;;;13.20;99.90;;;;;;5034714;28;20029;-64
2021/10/31 11:30:13;;;;;;;15.07;10.25;;;13.30;99.90;;;;;;5036864;28;20222;-65
2021/10/31 11:32:40;;;;;;;18.30;10.23;;;13.40;99.90;;;;;;5013994;28;20333;-65
2021/10/31 11:35:07;;;;;;;21.40;10.23;;;13.60;99.90;;;;;;5040070;28;20375;-65
2021/10/31 11:38:05;;;;;;;19.35;10.07;;;13.60;99.90;;;;;;5026923;28;20044;-64
2021/10/31 11:41:00;;;;;;;17.20;9.40;;;13.20;99.90;;;;;;5035495;28;20071;-64
2021/10/31 11:43:30;;;;;;;19.75;11.02;;;12.90;99.90;;;;;;5036514;28;20037;-65
2021/10/31 11:45:57;;;;;;;18.98;11.02;;;12.70;99.90;;;;;;5040635;28;20081;-64
2021/10/31 11:48:24;;;;;;;20.60;11.65;;;12.50;99.90;;;;;;5041977;28;20033;-64
2021/10/31 11:50:59;;;;;;;20.50;13.10;;;12.40;99.90;;;;;;5041190;28;20362;-64
2021/10/31 11:53:49;;;;;;;20.88;13.15;;;12.40;99.90;;;;;;5042272;28;20044;-64
2021/10/31 11:56:26;;;;;;;19.83;12.75;;;12.30;99.90;;;;;;5028714;28;20037;-64
2021/10/31 11:59:14;;;;;;;25.65;12.63;;;12.10;99.90;;;;;;5039244;28;20051;-63
2021/10/31 12:01:48;;;;;;;18.23;11.52;;;12.00;99.90;;;;;;5042273;28;20259;-63
2021/10/31 12:04:54;;;;;;;22.08;11.23;;;11.90;99.90;;;;;;5039857;28;20044;-63
2021/10/31 12:07:56;;;;;;;18.65;11.15;;;11.80;99.90;;;;;;5037989;28;20358;-63
2021/10/31 12:10:33;;;;;;;23.05;12.30;;;11.70;99.90;;;;;;4962869;28;20122;-63
2021/10/31 12:13:18;;;;;;;20.10;11.98;;;11.70;99.90;;;;;;5024563;28;20049;-64
2021/10/31 12:16:18;;;;;;;23.30;12.02;;;11.70;99.90;;;;;;5037488;28;20098;-64
2021/10/31 12:19:08;;;;;;;21.73;11.23;;;11.70;99.90;;;;;;5039180;28;20024;-66
2021/10/31 12:21:39;;;;;;;21.70;10.73;;;11.70;99.90;;;;;;5038708;28;20101;-66
2021/10/31 12:24:17;;;;;;;20.80;11.48;;;11.80;99.90;;;;;;5038438;28;20048;-66
2021/10/31 12:26:52;;;;;;;17.70;12.07;;;11.80;99.90;;;;;;5041142;28;20029;-63
2021/10/31 12:29:18;;;;;;;22.48;11.95;;;11.80;99.90;;;;;;5038917;28;20259;-76
2021/10/31 12:32:04;;;;;;;22.02;11.93;;;11.80;99.90;;;;;;5039712;28;20955;-76
2021/10/31 12:34:38;;;;;;;21.48;13.00;;;11.80;99.90;;;;;;5039052;28;20029;-77
2021/10/31 12:37:25;;;;;;;21.27;11.80;;;11.80;99.90;;;;;;5038757;28;20454;-76
2021/10/31 12:40:12;;;;;;;20.38;11.18;;;11.90;99.90;;;;;;4993038;28;20039;-76
2021/10/31 12:43:00;;;;;;;24.15;13.18;;;11.90;99.90;;;;;;5040168;28;20083;-76
2021/10/31 12:45:29;;;;;;;21.95;13.43;;;11.90;99.90;;;;;;5042019;28;20052;-76
2021/10/31 12:48:06;;;;;;;28.27;13.35;;;11.90;99.90;;;;;;5040321;28;20227;-76
2021/10/31 12:50:34;;;;;;;23.25;14.05;;;12.00;99.90;;;;;;5041630;28;20131;-77
2021/10/31 12:53:11;;;;;;;20.17;11.20;;;12.10;99.90;;;;;;5041128;28;20327;-76
2021/10/31 12:55:43;;;;;;;20.45;11.27;;;12.10;99.90;;;;;;5041880;28;20035;-76
2021/10/31 12:58:10;;;;;;;22.23;12.07;;;12.10;99.90;;;;;;5037289;28;20109;-70